• Join FlightAware (Why Join?)
  • Login
  • US Flag 
04:16AM EDT


 

Airport Tracker/Info


-or-


 

Live Flight TrackerFlight Track Log ✈ CSJ406 ✈ 23-May-2013 ✈ KBUF - KCAK

Flight Track Log - Related Links

Times and Time Zones

All times are in EDT time to prevent confusion due to time zone crossing. See the CSJ406 flight status page for this flight to view local times or setup timezone preferences in your user account.

Time Position Orientation Groundspeed Altitude Reporting Facility
EDT Latitude Longitude Course Direction KTS MPH feet Rate Location/Type
07:41AM 42.9333 -78.7333 216° Southwest 71 82 1,600  Level Buffalo TRACON
07:42AM 42.9167 -78.7500 216° Southwest 76 87 2,600 1,020 Climbing Buffalo TRACON
07:43AM 42.9000 -78.7833 236° Southwest 84 97 3,700 1,140 Climbing Buffalo TRACON
07:44AM 42.8833 -78.8000 216° Southwest 77 89 5,000 900 Climbing Buffalo TRACON
07:45AM 42.8667 -78.8333 236° Southwest 103 119 5,600 540 Climbing Buffalo TRACON
07:46AM 42.8500 -78.8667 236° Southwest 121 139 6,200 540 Climbing Buffalo TRACON
07:47AM 42.8167 -78.9000 216° Southwest 120 138 6,700 600 Climbing Buffalo TRACON
07:48AM 42.8000 -78.9333 236° Southwest 116 133 7,400 600 Climbing Buffalo TRACON
07:49AM 42.7833 -78.9500 216° Southwest 114 131 8,000 240 Climbing Buffalo TRACON
07:50AM 42.7500 -79.0000 228° Southwest 128 147 8,000  Level Buffalo TRACON
07:51AM 42.7167 -79.0333 216° Southwest 141 162 8,000  Level Buffalo TRACON
07:52AM 42.7000 -79.0667 236° Southwest 138 159 8,000  Level Buffalo TRACON
07:54AM 42.6667 -79.1167 228° Southwest 137 158 8,000  Level Buffalo TRACON
07:55AM 42.6333 -79.1500 216° Southwest 138 159 8,000  Level Buffalo TRACON
07:56AM 42.6000 -79.2000 228° Southwest 136 157 8,000  Level Buffalo TRACON
07:58AM 42.5596 -79.2527 224° Southwest  Level FlightAware Approximate
08:05AM 42.3856 -79.4821 225° Southwest  Level FlightAware Approximate
08:06AM 42.3612 -79.5155 225° Southwest  Level FlightAware Approximate
08:07AM 42.3368 -79.5488 225° Southwest  Level FlightAware Approximate
08:08AM 42.3125 -79.5821 225° Southwest  Level FlightAware Approximate
08:09AM 42.2881 -79.6154 225° Southwest  Level FlightAware Approximate
08:10AM 42.2636 -79.6487 225° Southwest  Level FlightAware Approximate
08:11AM 42.2392 -79.6819 225° Southwest  Level FlightAware Approximate
08:12AM 42.2148 -79.7151 225° Southwest  Level FlightAware Approximate
08:13AM 42.1903 -79.7483 225° Southwest  Level FlightAware Approximate
08:14AM 42.1659 -79.7814 225° Southwest  Level FlightAware Approximate
08:15AM 42.1414 -79.8146 225° Southwest  Level FlightAware Approximate
08:16AM 42.1170 -79.8476 225° Southwest  Level FlightAware Approximate
08:17AM 42.0925 -79.8807 225° Southwest  Level FlightAware Approximate
08:18AM 42.0680 -79.9138 225° Southwest  Level FlightAware Approximate
08:19AM 42.0435 -79.9468 225° Southwest  Level FlightAware Approximate
08:20AM 42.0190 -79.9798 225° Southwest  Level FlightAware Approximate
08:21AM 41.9945 -80.0128 225° Southwest  Level FlightAware Approximate
08:22AM 41.9699 -80.0457 225° Southwest  Level FlightAware Approximate
08:23AM 41.9454 -80.0787 225° Southwest  Level FlightAware Approximate
08:24AM 41.9208 -80.1115 225° Southwest  Level FlightAware Approximate
08:25AM 41.8963 -80.1444 225° Southwest  Level FlightAware Approximate
08:26AM 41.8717 -80.1773 225° Southwest  Level FlightAware Approximate
08:27AM 41.8471 -80.2101 225° Southwest  Level FlightAware Approximate
08:28AM 41.8226 -80.2429 225° Southwest  Level FlightAware Approximate
08:29AM 41.7980 -80.2757 225° Southwest  Level FlightAware Approximate
08:30AM 41.7734 -80.3084 225° Southwest  Level FlightAware Approximate
08:31AM 41.7488 -80.3411 225° Southwest  Level FlightAware Approximate
08:32AM 41.7241 -80.3738 225° Southwest  Level FlightAware Approximate
08:33AM 41.6995 -80.4065 225° Southwest  Level FlightAware Approximate
08:34AM 41.6749 -80.4391 225° Southwest  Level FlightAware Approximate
08:35AM 41.6503 -80.4719 225° Southwest  Level FlightAware Approximate
08:36AM 41.6257 -80.5047 225° Southwest  Level FlightAware Approximate
08:37AM 41.6012 -80.5374 225° Southwest  Level FlightAware Approximate
08:38AM 41.5766 -80.5701 225° Southwest  Level FlightAware Approximate
08:39AM 41.5518 -80.6024 224° Southwest  Level FlightAware Approximate
08:40AM 41.5268 -80.6345 224° Southwest  Level FlightAware Approximate
08:41AM 41.5018 -80.6666 224° Southwest  Level FlightAware Approximate
08:42AM 41.4768 -80.6987 224° Southwest  Level FlightAware Approximate
08:43AM 41.4518 -80.7307 224° Southwest  Level FlightAware Approximate
08:44AM 41.4268 -80.7627 224° Southwest  Level FlightAware Approximate
08:45AM 41.4018 -80.7947 224° Southwest  Level FlightAware Approximate
08:46AM 41.3767 -80.8266 224° Southwest  Level FlightAware Approximate
08:47AM 41.3517 -80.8586 224° Southwest  Level FlightAware Approximate
08:48AM 41.3266 -80.8905 224° Southwest  Level FlightAware Approximate
08:49AM 41.3016 -80.9223 224° Southwest  Level FlightAware Approximate
08:50AM 41.2765 -80.9542 224° Southwest  Level FlightAware Approximate
08:51AM 41.2518 -80.9865 225° Southwest  Level FlightAware Approximate
08:52AM 41.2273 -81.0192 225° Southwest  Level FlightAware Approximate
08:53AM 41.2010 -81.0490 217° Southwest  Level FlightAware Approximate
08:54AM 41.1792 -81.0847 231° Southwest  Level FlightAware Approximate
08:55AM 41.1576 -81.1207 231° Southwest  Level FlightAware Approximate
08:56AM 41.1292 -81.1388 225° Southwest  Level FlightAware Approximate
08:57AM 41.1048 -81.1715 225° Southwest  Level FlightAware Approximate
08:58AM 41.0807 -81.2045 232° Southwest  Level FlightAware Approximate
08:59AM 41.0591 -81.2405 232° Southwest  Level FlightAware Approximate
09:00AM 41.0375 -81.2764 231° Southwest  Level FlightAware Approximate
09:01AM 41.0110 -81.3057 217° Southwest  Level FlightAware Approximate
09:02AM 40.9833 -81.3334 217° Southwest  Level FlightAware Approximate
09:03AM 40.9566 -81.3626 223° Southwest  Level FlightAware Approximate
09:04AM 40.9314 -81.3941 223° Southwest  Level FlightAware Approximate
09:05AM 40.9062 -81.4256 223° Southwest  Level FlightAware Approximate
09:06AM 40.9000 -81.4333 North  Level FlightAware Approximate
09:07AM 40.9151 -81.4436 North  Level Estimated